sensor_id;sensor_type;location;lat;lon;timestamp;P1;durP1;ratioP1;P2;durP2;ratioP2
42866;SDS011;39461;40.948;73.006;2022-10-17T00:00:05;26.63;;;9.32;;
42866;SDS011;39461;40.948;73.006;2022-10-17T00:02:38;20.13;;;7.90;;
42866;SDS011;39461;40.948;73.006;2022-10-17T00:05:16;18.48;;;8.13;;
42866;SDS011;39461;40.948;73.006;2022-10-17T00:07:49;22.33;;;9.52;;
42866;SDS011;39461;40.948;73.006;2022-10-17T00:10:22;15.30;;;8.73;;
42866;SDS011;39461;40.948;73.006;2022-10-17T00:12:55;19.58;;;8.57;;
42866;SDS011;39461;40.948;73.006;2022-10-17T00:15:26;20.42;;;9.00;;
42866;SDS011;39461;40.948;73.006;2022-10-17T00:18:02;22.05;;;9.02;;
42866;SDS011;39461;40.948;73.006;2022-10-17T00:20:39;19.50;;;9.57;;
42866;SDS011;39461;40.948;73.006;2022-10-17T00:23:18;22.98;;;9.50;;
42866;SDS011;39461;40.948;73.006;2022-10-17T00:26:03;24.05;;;9.40;;
42866;SDS011;39461;40.948;73.006;2022-10-17T00:28:37;18.00;;;9.25;;
42866;SDS011;39461;40.948;73.006;2022-10-17T00:31:10;23.90;;;9.98;;
42866;SDS011;39461;40.948;73.006;2022-10-17T00:33:43;20.55;;;9.43;;
42866;SDS011;39461;40.948;73.006;2022-10-17T00:36:21;21.42;;;9.40;;
42866;SDS011;39461;40.948;73.006;2022-10-17T00:38:55;17.52;;;8.95;;
42866;SDS011;39461;40.948;73.006;2022-10-17T00:41:29;20.88;;;10.82;;
42866;SDS011;39461;40.948;73.006;2022-10-17T00:44:04;18.00;;;8.95;;
42866;SDS011;39461;40.948;73.006;2022-10-17T00:46:40;20.25;;;9.70;;
42866;SDS011;39461;40.948;73.006;2022-10-17T00:49:13;26.38;;;9.32;;
42866;SDS011;39461;40.948;73.006;2022-10-17T00:51:49;21.77;;;9.80;;
42866;SDS011;39461;40.948;73.006;2022-10-17T00:54:26;18.88;;;9.23;;
42866;SDS011;39461;40.948;73.006;2022-10-17T01:00:07;27.40;;;10.60;;
42866;SDS011;39461;40.948;73.006;2022-10-17T01:02:40;25.40;;;9.60;;
42866;SDS011;39461;40.948;73.006;2022-10-17T01:05:15;17.83;;;9.40;;
42866;SDS011;39461;40.948;73.006;2022-10-17T01:07:51;26.33;;;9.73;;
42866;SDS011;39461;40.948;73.006;2022-10-17T01:10:32;27.80;;;9.75;;
42866;SDS011;39461;40.948;73.006;2022-10-17T01:13:17;21.58;;;10.30;;
42866;SDS011;39461;40.948;73.006;2022-10-17T01:15:58;30.98;;;9.95;;
42866;SDS011;39461;40.948;73.006;2022-10-17T01:21:16;21.33;;;9.35;;
42866;SDS011;39461;40.948;73.006;2022-10-17T01:32:49;32.25;;;10.60;;
42866;SDS011;39461;40.948;73.006;2022-10-17T01:38:35;28.33;;;10.38;;
42866;SDS011;39461;40.948;73.006;2022-10-17T01:41:32;27.15;;;10.18;;
42866;SDS011;39461;40.948;73.006;2022-10-17T01:44:11;20.63;;;9.80;;
42866;SDS011;39461;40.948;73.006;2022-10-17T01:46:48;34.08;;;11.05;;
42866;SDS011;39461;40.948;73.006;2022-10-17T01:49:22;26.15;;;10.82;;
42866;SDS011;39461;40.948;73.006;2022-10-17T01:52:04;26.92;;;10.68;;
42866;SDS011;39461;40.948;73.006;2022-10-17T01:54:39;29.83;;;11.02;;
42866;SDS011;39461;40.948;73.006;2022-10-17T01:57:26;29.67;;;11.30;;
42866;SDS011;39461;40.948;73.006;2022-10-17T02:00:07;33.17;;;10.77;;
42866;SDS011;39461;40.948;73.006;2022-10-17T02:02:44;32.90;;;10.65;;
42866;SDS011;39461;40.948;73.006;2022-10-17T02:05:24;30.75;;;12.70;;
42866;SDS011;39461;40.948;73.006;2022-10-17T02:08:01;39.50;;;15.93;;
42866;SDS011;39461;40.948;73.006;2022-10-17T02:29:46;50.00;;;14.18;;
42866;SDS011;39461;40.948;73.006;2022-10-17T02:32:28;34.42;;;13.88;;
42866;SDS011;39461;40.948;73.006;2022-10-17T02:35:07;35.72;;;14.77;;
42866;SDS011;39461;40.948;73.006;2022-10-17T02:37:42;62.05;;;17.50;;
42866;SDS011;39461;40.948;73.006;2022-10-17T02:40:16;45.28;;;16.17;;
42866;SDS011;39461;40.948;73.006;2022-10-17T02:42:50;47.38;;;16.90;;
42866;SDS011;39461;40.948;73.006;2022-10-17T02:45:25;41.75;;;16.17;;
42866;SDS011;39461;40.948;73.006;2022-10-17T02:48:03;39.08;;;16.27;;
42866;SDS011;39461;40.948;73.006;2022-10-17T02:53:35;41.38;;;17.35;;
42866;SDS011;39461;40.948;73.006;2022-10-17T02:56:18;48.22;;;20.73;;
42866;SDS011;39461;40.948;73.006;2022-10-17T02:58:53;63.05;;;23.17;;
42866;SDS011;39461;40.948;73.006;2022-10-17T03:01:40;57.78;;;20.77;;
42866;SDS011;39461;40.948;73.006;2022-10-17T03:04:14;56.25;;;18.90;;
42866;SDS011;39461;40.948;73.006;2022-10-17T03:06:47;43.38;;;17.20;;
42866;SDS011;39461;40.948;73.006;2022-10-17T03:09:20;47.42;;;17.25;;
42866;SDS011;39461;40.948;73.006;2022-10-17T03:11:53;45.60;;;16.00;;
42866;SDS011;39461;40.948;73.006;2022-10-17T03:14:27;45.80;;;16.33;;
42866;SDS011;39461;40.948;73.006;2022-10-17T03:17:02;50.58;;;15.73;;
42866;SDS011;39461;40.948;73.006;2022-10-17T03:19:35;43.78;;;15.25;;
42866;SDS011;39461;40.948;73.006;2022-10-17T03:22:11;46.08;;;14.77;;
42866;SDS011;39461;40.948;73.006;2022-10-17T03:24:44;50.25;;;14.63;;
42866;SDS011;39461;40.948;73.006;2022-10-17T03:27:20;35.20;;;13.60;;
42866;SDS011;39461;40.948;73.006;2022-10-17T03:29:53;43.38;;;15.77;;
42866;SDS011;39461;40.948;73.006;2022-10-17T03:32:26;51.05;;;19.48;;
42866;SDS011;39461;40.948;73.006;2022-10-17T03:35:04;53.25;;;19.00;;
42866;SDS011;39461;40.948;73.006;2022-10-17T03:40:38;47.45;;;19.88;;
42866;SDS011;39461;40.948;73.006;2022-10-17T03:43:11;47.97;;;20.27;;
42866;SDS011;39461;40.948;73.006;2022-10-17T03:45:44;57.63;;;19.65;;
42866;SDS011;39461;40.948;73.006;2022-10-17T03:48:19;52.55;;;18.25;;
42866;SDS011;39461;40.948;73.006;2022-10-17T03:50:57;51.90;;;19.60;;
42866;SDS011;39461;40.948;73.006;2022-10-17T03:53:31;61.20;;;21.42;;
42866;SDS011;39461;40.948;73.006;2022-10-17T03:56:15;58.92;;;25.83;;
42866;SDS011;39461;40.948;73.006;2022-10-17T03:58:48;69.38;;;25.73;;
42866;SDS011;39461;40.948;73.006;2022-10-17T04:01:23;66.20;;;24.75;;
42866;SDS011;39461;40.948;73.006;2022-10-17T04:03:58;63.20;;;21.10;;
42866;SDS011;39461;40.948;73.006;2022-10-17T04:06:34;58.13;;;23.73;;
42866;SDS011;39461;40.948;73.006;2022-10-17T04:09:04;54.17;;;20.25;;
42866;SDS011;39461;40.948;73.006;2022-10-17T04:11:37;54.65;;;18.42;;
42866;SDS011;39461;40.948;73.006;2022-10-17T04:14:10;42.67;;;16.77;;
42866;SDS011;39461;40.948;73.006;2022-10-17T04:16:42;54.33;;;16.63;;
42866;SDS011;39461;40.948;73.006;2022-10-17T04:19:15;49.90;;;17.85;;
42866;SDS011;39461;40.948;73.006;2022-10-17T04:21:49;40.78;;;14.88;;
42866;SDS011;39461;40.948;73.006;2022-10-17T04:24:21;45.40;;;14.07;;
42866;SDS011;39461;40.948;73.006;2022-10-17T04:26:50;51.90;;;19.23;;
42866;SDS011;39461;40.948;73.006;2022-10-17T04:29:28;56.97;;;21.70;;
42866;SDS011;39461;40.948;73.006;2022-10-17T04:32:05;41.67;;;16.52;;
42866;SDS011;39461;40.948;73.006;2022-10-17T04:34:38;40.97;;;14.95;;
42866;SDS011;39461;40.948;73.006;2022-10-17T04:37:13;40.22;;;15.65;;
42866;SDS011;39461;40.948;73.006;2022-10-17T04:39:48;33.53;;;16.52;;
42866;SDS011;39461;40.948;73.006;2022-10-17T04:42:24;44.00;;;19.75;;
42866;SDS011;39461;40.948;73.006;2022-10-17T04:45:01;43.50;;;18.02;;
42866;SDS011;39461;40.948;73.006;2022-10-17T04:47:38;60.65;;;30.45;;
42866;SDS011;39461;40.948;73.006;2022-10-17T04:50:13;43.38;;;17.15;;
42866;SDS011;39461;40.948;73.006;2022-10-17T04:52:48;40.28;;;15.68;;
42866;SDS011;39461;40.948;73.006;2022-10-17T04:55:21;39.92;;;17.10;;
42866;SDS011;39461;40.948;73.006;2022-10-17T04:57:54;40.28;;;16.75;;
42866;SDS011;39461;40.948;73.006;2022-10-17T05:00:30;40.97;;;15.77;;
42866;SDS011;39461;40.948;73.006;2022-10-17T05:06:11;38.90;;;16.88;;
42866;SDS011;39461;40.948;73.006;2022-10-17T05:08:48;63.42;;;26.15;;
42866;SDS011;39461;40.948;73.006;2022-10-17T05:11:25;55.08;;;21.42;;
42866;SDS011;39461;40.948;73.006;2022-10-17T05:14:08;48.05;;;21.20;;
42866;SDS011;39461;40.948;73.006;2022-10-17T05:16:43;28.05;;;13.45;;
42866;SDS011;39461;40.948;73.006;2022-10-17T05:19:18;34.00;;;17.83;;
42866;SDS011;39461;40.948;73.006;2022-10-17T05:21:45;31.88;;;15.27;;
42866;SDS011;39461;40.948;73.006;2022-10-17T05:24:14;37.30;;;16.35;;
42866;SDS011;39461;40.948;73.006;2022-10-17T05:26:50;38.72;;;14.93;;
42866;SDS011;39461;40.948;73.006;2022-10-17T05:29:25;39.95;;;15.23;;
42866;SDS011;39461;40.948;73.006;2022-10-17T05:32:03;36.08;;;15.25;;
42866;SDS011;39461;40.948;73.006;2022-10-17T05:34:37;34.42;;;14.25;;
42866;SDS011;39461;40.948;73.006;2022-10-17T05:37:10;44.08;;;15.30;;
42866;SDS011;39461;40.948;73.006;2022-10-17T05:39:43;46.00;;;15.82;;
42866;SDS011;39461;40.948;73.006;2022-10-17T05:42:22;36.75;;;13.40;;
42866;SDS011;39461;40.948;73.006;2022-10-17T05:44:58;32.80;;;13.57;;
42866;SDS011;39461;40.948;73.006;2022-10-17T05:47:33;48.42;;;16.63;;
42866;SDS011;39461;40.948;73.006;2022-10-17T05:50:10;26.48;;;13.75;;
42866;SDS011;39461;40.948;73.006;2022-10-17T05:52:44;43.15;;;19.33;;
42866;SDS011;39461;40.948;73.006;2022-10-17T05:55:18;44.72;;;16.55;;
42866;SDS011;39461;40.948;73.006;2022-10-17T05:57:51;52.08;;;22.85;;
42866;SDS011;39461;40.948;73.006;2022-10-17T06:00:28;51.38;;;21.88;;
42866;SDS011;39461;40.948;73.006;2022-10-17T06:03:01;42.17;;;16.90;;
42866;SDS011;39461;40.948;73.006;2022-10-17T06:05:37;49.42;;;17.45;;
42866;SDS011;39461;40.948;73.006;2022-10-17T06:08:12;33.70;;;12.48;;
42866;SDS011;39461;40.948;73.006;2022-10-17T06:10:49;28.35;;;13.50;;
42866;SDS011;39461;40.948;73.006;2022-10-17T06:13:25;31.27;;;12.20;;
42866;SDS011;39461;40.948;73.006;2022-10-17T06:15:52;30.92;;;12.65;;
42866;SDS011;39461;40.948;73.006;2022-10-17T06:18:27;26.83;;;12.60;;
42866;SDS011;39461;40.948;73.006;2022-10-17T06:21:02;32.05;;;13.60;;
42866;SDS011;39461;40.948;73.006;2022-10-17T06:23:35;33.83;;;12.95;;
42866;SDS011;39461;40.948;73.006;2022-10-17T06:26:08;34.38;;;13.43;;
42866;SDS011;39461;40.948;73.006;2022-10-17T06:31:42;36.50;;;15.20;;
42866;SDS011;39461;40.948;73.006;2022-10-17T06:34:17;39.92;;;14.57;;
42866;SDS011;39461;40.948;73.006;2022-10-17T06:36:51;34.08;;;15.35;;
42866;SDS011;39461;40.948;73.006;2022-10-17T06:39:25;33.13;;;13.85;;
42866;SDS011;39461;40.948;73.006;2022-10-17T06:42:10;32.60;;;15.57;;
42866;SDS011;39461;40.948;73.006;2022-10-17T06:44:45;36.33;;;15.07;;
42866;SDS011;39461;40.948;73.006;2022-10-17T06:47:20;38.28;;;15.38;;
42866;SDS011;39461;40.948;73.006;2022-10-17T06:49:53;57.28;;;30.55;;
42866;SDS011;39461;40.948;73.006;2022-10-17T06:52:23;42.08;;;19.80;;
42866;SDS011;39461;40.948;73.006;2022-10-17T06:55:00;47.47;;;20.80;;
42866;SDS011;39461;40.948;73.006;2022-10-17T06:57:33;46.67;;;21.13;;
42866;SDS011;39461;40.948;73.006;2022-10-17T07:00:06;33.75;;;17.67;;
42866;SDS011;39461;40.948;73.006;2022-10-17T07:02:41;42.30;;;18.23;;
42866;SDS011;39461;40.948;73.006;2022-10-17T07:05:19;41.33;;;18.30;;
42866;SDS011;39461;40.948;73.006;2022-10-17T07:07:54;43.15;;;19.08;;
42866;SDS011;39461;40.948;73.006;2022-10-17T07:10:29;42.75;;;17.65;;
42866;SDS011;39461;40.948;73.006;2022-10-17T07:13:08;37.53;;;18.23;;
42866;SDS011;39461;40.948;73.006;2022-10-17T07:15:42;44.55;;;19.15;;
42866;SDS011;39461;40.948;73.006;2022-10-17T07:18:17;45.97;;;19.40;;
42866;SDS011;39461;40.948;73.006;2022-10-17T07:20:53;34.55;;;16.85;;
42866;SDS011;39461;40.948;73.006;2022-10-17T07:23:27;35.50;;;16.30;;
42866;SDS011;39461;40.948;73.006;2022-10-17T07:26:09;30.08;;;15.32;;
42866;SDS011;39461;40.948;73.006;2022-10-17T07:28:46;38.90;;;18.73;;
42866;SDS011;39461;40.948;73.006;2022-10-17T07:31:20;38.55;;;17.35;;
42866;SDS011;39461;40.948;73.006;2022-10-17T07:33:55;33.08;;;16.95;;
42866;SDS011;39461;40.948;73.006;2022-10-17T07:36:28;39.35;;;17.98;;
42866;SDS011;39461;40.948;73.006;2022-10-17T07:39:03;31.02;;;16.42;;
42866;SDS011;39461;40.948;73.006;2022-10-17T07:41:37;36.65;;;17.40;;
42866;SDS011;39461;40.948;73.006;2022-10-17T07:44:14;47.67;;;18.90;;
42866;SDS011;39461;40.948;73.006;2022-10-17T07:46:49;41.67;;;17.42;;
42866;SDS011;39461;40.948;73.006;2022-10-17T07:49:22;39.17;;;18.40;;
42866;SDS011;39461;40.948;73.006;2022-10-17T07:52:02;27.02;;;17.10;;
42866;SDS011;39461;40.948;73.006;2022-10-17T07:54:37;38.13;;;18.65;;
42866;SDS011;39461;40.948;73.006;2022-10-17T07:57:17;40.85;;;18.05;;
42866;SDS011;39461;40.948;73.006;2022-10-17T08:02:48;53.55;;;19.70;;
42866;SDS011;39461;40.948;73.006;2022-10-17T08:05:21;39.65;;;18.25;;
42866;SDS011;39461;40.948;73.006;2022-10-17T08:07:55;36.88;;;16.80;;
42866;SDS011;39461;40.948;73.006;2022-10-17T08:10:28;31.10;;;16.15;;
42866;SDS011;39461;40.948;73.006;2022-10-17T08:13:02;44.20;;;20.40;;
42866;SDS011;39461;40.948;73.006;2022-10-17T08:15:29;47.80;;;20.70;;
42866;SDS011;39461;40.948;73.006;2022-10-17T08:18:01;31.67;;;18.05;;
42866;SDS011;39461;40.948;73.006;2022-10-17T08:20:36;33.90;;;18.58;;
42866;SDS011;39461;40.948;73.006;2022-10-17T08:23:11;39.05;;;21.23;;
42866;SDS011;39461;40.948;73.006;2022-10-17T08:25:46;53.78;;;21.33;;
42866;SDS011;39461;40.948;73.006;2022-10-17T08:28:17;45.50;;;21.63;;
42866;SDS011;39461;40.948;73.006;2022-10-17T08:30:52;57.47;;;22.23;;
42866;SDS011;39461;40.948;73.006;2022-10-17T08:33:27;53.00;;;23.35;;
42866;SDS011;39461;40.948;73.006;2022-10-17T08:36:01;55.47;;;26.05;;
42866;SDS011;39461;40.948;73.006;2022-10-17T08:38:41;55.72;;;24.65;;
42866;SDS011;39461;40.948;73.006;2022-10-17T08:44:12;48.45;;;21.35;;
42866;SDS011;39461;40.948;73.006;2022-10-17T08:46:49;45.33;;;22.73;;
42866;SDS011;39461;40.948;73.006;2022-10-17T08:49:47;58.30;;;26.65;;
42866;SDS011;39461;40.948;73.006;2022-10-17T08:54:59;56.03;;;25.27;;
42866;SDS011;39461;40.948;73.006;2022-10-17T08:57:35;56.17;;;25.40;;
42866;SDS011;39461;40.948;73.006;2022-10-17T09:00:18;51.60;;;25.35;;
42866;SDS011;39461;40.948;73.006;2022-10-17T09:05:33;59.42;;;25.33;;
42866;SDS011;39461;40.948;73.006;2022-10-17T09:08:14;52.72;;;26.70;;
42866;SDS011;39461;40.948;73.006;2022-10-17T09:19:02;73.10;;;23.05;;
42866;SDS011;39461;40.948;73.006;2022-10-17T09:21:56;52.50;;;19.75;;
42866;SDS011;39461;40.948;73.006;2022-10-17T09:24:45;40.55;;;16.85;;
42866;SDS011;39461;40.948;73.006;2022-10-17T09:32:54;34.63;;;17.20;;
42866;SDS011;39461;40.948;73.006;2022-10-17T09:35:27;41.78;;;17.83;;
42866;SDS011;39461;40.948;73.006;2022-10-17T09:38:01;35.97;;;18.33;;
42866;SDS011;39461;40.948;73.006;2022-10-17T09:40:34;46.00;;;19.40;;
42866;SDS011;39461;40.948;73.006;2022-10-17T09:48:53;49.17;;;18.88;;
42866;SDS011;39461;40.948;73.006;2022-10-17T09:51:28;47.88;;;20.33;;
42866;SDS011;39461;40.948;73.006;2022-10-17T09:54:04;42.22;;;20.70;;
42866;SDS011;39461;40.948;73.006;2022-10-17T09:56:56;34.03;;;20.50;;
42866;SDS011;39461;40.948;73.006;2022-10-17T09:59:30;41.15;;;20.67;;
42866;SDS011;39461;40.948;73.006;2022-10-17T10:02:23;49.60;;;21.98;;
42866;SDS011;39461;40.948;73.006;2022-10-17T10:05:18;45.28;;;24.33;;
42866;SDS011;39461;40.948;73.006;2022-10-17T10:08:01;39.65;;;21.13;;
42866;SDS011;39461;40.948;73.006;2022-10-17T10:10:37;53.30;;;23.77;;
42866;SDS011;39461;40.948;73.006;2022-10-17T10:13:22;50.97;;;23.17;;
42866;SDS011;39461;40.948;73.006;2022-10-17T10:15:52;56.30;;;24.77;;
42866;SDS011;39461;40.948;73.006;2022-10-17T10:18:36;72.28;;;36.22;;
42866;SDS011;39461;40.948;73.006;2022-10-17T10:23:43;66.47;;;30.58;;
42866;SDS011;39461;40.948;73.006;2022-10-17T10:28:50;58.60;;;33.45;;
42866;SDS011;39461;40.948;73.006;2022-10-17T10:31:24;77.65;;;37.70;;
42866;SDS011;39461;40.948;73.006;2022-10-17T10:33:59;92.80;;;39.88;;
42866;SDS011;39461;40.948;73.006;2022-10-17T10:36:41;79.15;;;39.10;;
42866;SDS011;39461;40.948;73.006;2022-10-17T10:39:12;81.88;;;40.00;;
42866;SDS011;39461;40.948;73.006;2022-10-17T10:41:49;115.30;;;55.67;;
42866;SDS011;39461;40.948;73.006;2022-10-17T10:44:16;116.47;;;56.63;;
42866;SDS011;39461;40.948;73.006;2022-10-17T10:47:16;113.78;;;46.83;;
42866;SDS011;39461;40.948;73.006;2022-10-17T10:50:14;96.63;;;49.22;;
42866;SDS011;39461;40.948;73.006;2022-10-17T11:01:14;153.32;;;74.60;;
42866;SDS011;39461;40.948;73.006;2022-10-17T11:06:43;122.93;;;60.40;;
42866;SDS011;39461;40.948;73.006;2022-10-17T11:12:21;104.93;;;52.03;;
42866;SDS011;39461;40.948;73.006;2022-10-17T11:20:58;104.55;;;52.90;;
42866;SDS011;39461;40.948;73.006;2022-10-17T11:23:33;95.50;;;47.10;;
42866;SDS011;39461;40.948;73.006;2022-10-17T11:26:28;92.70;;;48.35;;
42866;SDS011;39461;40.948;73.006;2022-10-17T11:29:08;95.38;;;50.35;;
42866;SDS011;39461;40.948;73.006;2022-10-17T11:31:46;88.68;;;45.15;;
42866;SDS011;39461;40.948;73.006;2022-10-17T11:34:25;89.30;;;47.65;;
42866;SDS011;39461;40.948;73.006;2022-10-17T11:37:09;94.43;;;49.35;;
42866;SDS011;39461;40.948;73.006;2022-10-17T11:39:54;102.80;;;51.85;;
42866;SDS011;39461;40.948;73.006;2022-10-17T11:42:38;92.65;;;49.92;;
42866;SDS011;39461;40.948;73.006;2022-10-17T11:45:14;123.05;;;53.45;;
42866;SDS011;39461;40.948;73.006;2022-10-17T11:48:04;104.93;;;49.20;;
42866;SDS011;39461;40.948;73.006;2022-10-17T11:50:41;89.18;;;46.60;;
42866;SDS011;39461;40.948;73.006;2022-10-17T11:53:18;120.35;;;51.40;;
42866;SDS011;39461;40.948;73.006;2022-10-17T11:55:52;83.88;;;48.10;;
42866;SDS011;39461;40.948;73.006;2022-10-17T12:01:32;101.45;;;48.42;;
42866;SDS011;39461;40.948;73.006;2022-10-17T12:12:26;114.22;;;58.85;;
42866;SDS011;39461;40.948;73.006;2022-10-17T12:20:36;105.93;;;59.30;;
42866;SDS011;39461;40.948;73.006;2022-10-17T12:28:45;103.07;;;57.92;;
42866;SDS011;39461;40.948;73.006;2022-10-17T12:31:21;118.32;;;60.30;;
42866;SDS011;39461;40.948;73.006;2022-10-17T12:33:58;118.07;;;61.33;;
42866;SDS011;39461;40.948;73.006;2022-10-17T12:36:36;126.20;;;59.42;;
42866;SDS011;39461;40.948;73.006;2022-10-17T12:49:48;132.70;;;67.60;;
42866;SDS011;39461;40.948;73.006;2022-10-17T12:55:24;144.48;;;72.50;;
42866;SDS011;39461;40.948;73.006;2022-10-17T12:58:00;143.68;;;71.80;;
42866;SDS011;39461;40.948;73.006;2022-10-17T13:00:51;160.65;;;80.63;;
42866;SDS011;39461;40.948;73.006;2022-10-17T13:03:29;137.10;;;74.82;;
42866;SDS011;39461;40.948;73.006;2022-10-17T13:06:11;138.20;;;68.53;;
42866;SDS011;39461;40.948;73.006;2022-10-17T13:08:56;126.30;;;62.28;;
42866;SDS011;39461;40.948;73.006;2022-10-17T13:11:33;126.70;;;63.80;;
42866;SDS011;39461;40.948;73.006;2022-10-17T13:14:11;138.55;;;74.65;;
42866;SDS011;39461;40.948;73.006;2022-10-17T13:16:50;189.43;;;96.25;;
42866;SDS011;39461;40.948;73.006;2022-10-17T13:19:28;177.35;;;100.25;;
42866;SDS011;39461;40.948;73.006;2022-10-17T13:22:37;175.82;;;88.25;;
42866;SDS011;39461;40.948;73.006;2022-10-17T13:25:05;162.05;;;87.45;;
42866;SDS011;39461;40.948;73.006;2022-10-17T13:27:39;196.18;;;94.13;;
42866;SDS011;39461;40.948;73.006;2022-10-17T13:30:46;174.80;;;86.13;;
42866;SDS011;39461;40.948;73.006;2022-10-17T13:33:38;141.90;;;68.82;;
42866;SDS011;39461;40.948;73.006;2022-10-17T13:36:15;151.10;;;73.75;;
42866;SDS011;39461;40.948;73.006;2022-10-17T13:38:52;153.15;;;74.00;;
42866;SDS011;39461;40.948;73.006;2022-10-17T13:41:27;156.93;;;76.43;;
42866;SDS011;39461;40.948;73.006;2022-10-17T13:44:02;204.27;;;105.30;;
42866;SDS011;39461;40.948;73.006;2022-10-17T13:46:39;208.65;;;96.93;;
42866;SDS011;39461;40.948;73.006;2022-10-17T13:49:33;143.00;;;71.60;;
42866;SDS011;39461;40.948;73.006;2022-10-17T13:52:16;142.15;;;71.55;;
42866;SDS011;39461;40.948;73.006;2022-10-17T13:54:51;115.63;;;59.35;;
42866;SDS011;39461;40.948;73.006;2022-10-17T13:57:25;106.32;;;55.33;;
42866;SDS011;39461;40.948;73.006;2022-10-17T14:00:05;104.47;;;56.50;;
42866;SDS011;39461;40.948;73.006;2022-10-17T14:02:47;100.57;;;51.47;;
42866;SDS011;39461;40.948;73.006;2022-10-17T14:05:21;100.43;;;47.72;;
42866;SDS011;39461;40.948;73.006;2022-10-17T14:07:55;88.10;;;48.42;;
42866;SDS011;39461;40.948;73.006;2022-10-17T14:10:33;93.75;;;50.45;;
42866;SDS011;39461;40.948;73.006;2022-10-17T14:15:45;94.50;;;49.97;;
42866;SDS011;39461;40.948;73.006;2022-10-17T14:18:28;105.60;;;50.55;;
42866;SDS011;39461;40.948;73.006;2022-10-17T14:21:02;112.60;;;55.97;;
42866;SDS011;39461;40.948;73.006;2022-10-17T14:23:40;102.65;;;52.10;;
42866;SDS011;39461;40.948;73.006;2022-10-17T14:26:21;95.35;;;53.53;;
42866;SDS011;39461;40.948;73.006;2022-10-17T14:29:13;108.40;;;52.55;;
42866;SDS011;39461;40.948;73.006;2022-10-17T14:31:48;111.93;;;51.97;;
42866;SDS011;39461;40.948;73.006;2022-10-17T14:34:34;106.18;;;51.47;;
42866;SDS011;39461;40.948;73.006;2022-10-17T14:37:10;91.88;;;52.92;;
42866;SDS011;39461;40.948;73.006;2022-10-17T14:39:47;118.35;;;56.28;;
42866;SDS011;39461;40.948;73.006;2022-10-17T14:42:21;110.57;;;53.55;;
42866;SDS011;39461;40.948;73.006;2022-10-17T14:47:54;125.72;;;60.63;;
42866;SDS011;39461;40.948;73.006;2022-10-17T14:50:29;126.03;;;63.58;;
42866;SDS011;39461;40.948;73.006;2022-10-17T14:55:39;158.98;;;71.88;;
42866;SDS011;39461;40.948;73.006;2022-10-17T14:58:28;130.38;;;66.53;;
42866;SDS011;39461;40.948;73.006;2022-10-17T15:01:03;111.10;;;59.88;;
42866;SDS011;39461;40.948;73.006;2022-10-17T15:03:38;112.80;;;59.25;;
42866;SDS011;39461;40.948;73.006;2022-10-17T15:06:20;130.00;;;58.58;;
42866;SDS011;39461;40.948;73.006;2022-10-17T15:08:56;113.22;;;56.53;;
42866;SDS011;39461;40.948;73.006;2022-10-17T15:11:31;118.53;;;55.35;;
42866;SDS011;39461;40.948;73.006;2022-10-17T15:14:07;96.72;;;53.92;;
42866;SDS011;39461;40.948;73.006;2022-10-17T15:16:42;109.47;;;55.90;;
42866;SDS011;39461;40.948;73.006;2022-10-17T15:22:16;92.13;;;52.47;;
42866;SDS011;39461;40.948;73.006;2022-10-17T15:24:52;98.00;;;52.55;;
42866;SDS011;39461;40.948;73.006;2022-10-17T15:27:25;100.57;;;49.63;;
42866;SDS011;39461;40.948;73.006;2022-10-17T15:30:00;83.80;;;48.25;;
42866;SDS011;39461;40.948;73.006;2022-10-17T15:32:35;91.72;;;47.53;;
42866;SDS011;39461;40.948;73.006;2022-10-17T15:35:08;77.10;;;42.00;;
42866;SDS011;39461;40.948;73.006;2022-10-17T15:37:43;72.32;;;41.58;;
42866;SDS011;39461;40.948;73.006;2022-10-17T15:40:23;63.08;;;36.97;;
42866;SDS011;39461;40.948;73.006;2022-10-17T15:42:56;50.85;;;31.05;;
42866;SDS011;39461;40.948;73.006;2022-10-17T15:45:29;54.10;;;32.22;;
42866;SDS011;39461;40.948;73.006;2022-10-17T15:48:05;66.18;;;33.03;;
42866;SDS011;39461;40.948;73.006;2022-10-17T15:50:39;48.47;;;30.25;;
42866;SDS011;39461;40.948;73.006;2022-10-17T15:53:13;53.88;;;30.88;;
42866;SDS011;39461;40.948;73.006;2022-10-17T15:55:46;53.55;;;29.27;;
42866;SDS011;39461;40.948;73.006;2022-10-17T15:58:17;67.55;;;34.65;;
42866;SDS011;39461;40.948;73.006;2022-10-17T16:00:53;81.70;;;41.90;;
42866;SDS011;39461;40.948;73.006;2022-10-17T16:03:22;78.97;;;40.13;;
42866;SDS011;39461;40.948;73.006;2022-10-17T16:05:57;71.57;;;35.28;;
42866;SDS011;39461;40.948;73.006;2022-10-17T16:08:32;62.40;;;31.92;;
42866;SDS011;39461;40.948;73.006;2022-10-17T16:11:10;54.85;;;30.70;;
42866;SDS011;39461;40.948;73.006;2022-10-17T16:13:40;55.45;;;31.85;;
42866;SDS011;39461;40.948;73.006;2022-10-17T16:16:08;55.63;;;30.00;;
42866;SDS011;39461;40.948;73.006;2022-10-17T16:18:44;43.97;;;28.92;;
42866;SDS011;39461;40.948;73.006;2022-10-17T16:21:22;42.80;;;27.65;;
42866;SDS011;39461;40.948;73.006;2022-10-17T16:23:56;52.45;;;28.48;;
42866;SDS011;39461;40.948;73.006;2022-10-17T16:26:23;46.63;;;29.42;;
42866;SDS011;39461;40.948;73.006;2022-10-17T16:28:56;60.75;;;31.33;;
42866;SDS011;39461;40.948;73.006;2022-10-17T16:31:34;62.33;;;33.92;;
42866;SDS011;39461;40.948;73.006;2022-10-17T16:34:09;65.15;;;35.35;;
42866;SDS011;39461;40.948;73.006;2022-10-17T16:36:43;55.38;;;32.67;;
42866;SDS011;39461;40.948;73.006;2022-10-17T16:39:17;55.97;;;34.08;;
42866;SDS011;39461;40.948;73.006;2022-10-17T16:41:46;54.88;;;34.67;;
42866;SDS011;39461;40.948;73.006;2022-10-17T16:44:21;61.78;;;34.67;;
42866;SDS011;39461;40.948;73.006;2022-10-17T16:46:56;57.47;;;35.35;;
42866;SDS011;39461;40.948;73.006;2022-10-17T16:49:31;60.25;;;36.38;;
42866;SDS011;39461;40.948;73.006;2022-10-17T16:52:15;57.10;;;34.03;;
42866;SDS011;39461;40.948;73.006;2022-10-17T16:54:50;52.42;;;35.13;;
42866;SDS011;39461;40.948;73.006;2022-10-17T16:57:23;53.72;;;35.20;;
42866;SDS011;39461;40.948;73.006;2022-10-17T17:00:03;61.13;;;35.20;;
42866;SDS011;39461;40.948;73.006;2022-10-17T17:02:37;54.03;;;32.95;;
42866;SDS011;39461;40.948;73.006;2022-10-17T17:05:10;46.47;;;31.80;;
42866;SDS011;39461;40.948;73.006;2022-10-17T17:07:52;49.70;;;33.25;;
42866;SDS011;39461;40.948;73.006;2022-10-17T17:10:26;44.17;;;31.40;;
42866;SDS011;39461;40.948;73.006;2022-10-17T17:13:00;49.25;;;31.90;;
42866;SDS011;39461;40.948;73.006;2022-10-17T17:15:34;47.67;;;32.25;;
42866;SDS011;39461;40.948;73.006;2022-10-17T17:18:08;49.15;;;32.70;;
42866;SDS011;39461;40.948;73.006;2022-10-17T17:20:45;48.65;;;31.65;;
42866;SDS011;39461;40.948;73.006;2022-10-17T17:23:18;45.65;;;33.80;;
42866;SDS011;39461;40.948;73.006;2022-10-17T17:25:55;49.08;;;32.67;;
42866;SDS011;39461;40.948;73.006;2022-10-17T17:28:29;49.22;;;32.15;;
42866;SDS011;39461;40.948;73.006;2022-10-17T17:31:07;48.80;;;31.30;;
42866;SDS011;39461;40.948;73.006;2022-10-17T17:33:45;41.30;;;29.67;;